sensor_id;sensor_type;location;lat;lon;timestamp;temperature;humidity
8269;DHT22;4174;48.304;16.364;2023-03-07T00:04:13;5.90;99.90
8269;DHT22;4174;48.304;16.364;2023-03-07T00:10:17;5.90;99.90
8269;DHT22;4174;48.304;16.364;2023-03-07T00:16:22;5.90;99.90
8269;DHT22;4174;48.304;16.364;2023-03-07T00:22:25;5.90;99.90
8269;DHT22;4174;48.304;16.364;2023-03-07T00:28:29;5.90;99.90
8269;DHT22;4174;48.304;16.364;2023-03-07T00:34:32;5.80;99.90
8269;DHT22;4174;48.304;16.364;2023-03-07T00:40:37;5.60;99.90
8269;DHT22;4174;48.304;16.364;2023-03-07T00:46:40;5.60;99.90
8269;DHT22;4174;48.304;16.364;2023-03-07T00:52:45;5.50;99.90
8269;DHT22;4174;48.304;16.364;2023-03-07T00:58:48;5.50;99.90
8269;DHT22;4174;48.304;16.364;2023-03-07T01:04:51;5.40;99.90
8269;DHT22;4174;48.304;16.364;2023-03-07T01:10:58;5.20;99.90
8269;DHT22;4174;48.304;16.364;2023-03-07T01:17:00;5.10;99.90
8269;DHT22;4174;48.304;16.364;2023-03-07T01:23:04;4.90;99.90
8269;DHT22;4174;48.304;16.364;2023-03-07T01:29:07;4.80;99.90
8269;DHT22;4174;48.304;16.364;2023-03-07T01:35:10;4.60;99.90
8269;DHT22;4174;48.304;16.364;2023-03-07T01:41:13;4.50;99.90
8269;DHT22;4174;48.304;16.364;2023-03-07T01:47:16;4.40;99.90
8269;DHT22;4174;48.304;16.364;2023-03-07T01:53:20;4.30;99.90
8269;DHT22;4174;48.304;16.364;2023-03-07T01:59:26;4.20;99.90
8269;DHT22;4174;48.304;16.364;2023-03-07T02:05:29;4.20;99.90
8269;DHT22;4174;48.304;16.364;2023-03-07T02:11:31;4.10;99.90
8269;DHT22;4174;48.304;16.364;2023-03-07T02:17:34;4.10;99.90
8269;DHT22;4174;48.304;16.364;2023-03-07T02:23:52;4.00;99.90
8269;DHT22;4174;48.304;16.364;2023-03-07T02:30:02;4.00;99.90
8269;DHT22;4174;48.304;16.364;2023-03-07T02:36:09;4.10;99.90
8269;DHT22;4174;48.304;16.364;2023-03-07T02:42:12;4.20;99.90
8269;DHT22;4174;48.304;16.364;2023-03-07T02:48:14;4.20;99.90
8269;DHT22;4174;48.304;16.364;2023-03-07T02:54:18;4.20;99.90
8269;DHT22;4174;48.304;16.364;2023-03-07T03:00:22;4.20;99.90
8269;DHT22;4174;48.304;16.364;2023-03-07T03:06:25;4.20;99.90
8269;DHT22;4174;48.304;16.364;2023-03-07T03:12:29;4.30;99.90
8269;DHT22;4174;48.304;16.364;2023-03-07T03:18:35;4.30;99.90
8269;DHT22;4174;48.304;16.364;2023-03-07T03:24:38;4.30;99.90
8269;DHT22;4174;48.304;16.364;2023-03-07T03:30:40;4.40;99.90
8269;DHT22;4174;48.304;16.364;2023-03-07T03:36:45;4.30;99.90
8269;DHT22;4174;48.304;16.364;2023-03-07T03:42:49;4.30;99.90
8269;DHT22;4174;48.304;16.364;2023-03-07T03:48:53;4.30;99.90
8269;DHT22;4174;48.304;16.364;2023-03-07T03:54:56;4.30;99.90
8269;DHT22;4174;48.304;16.364;2023-03-07T04:01:00;4.40;99.90
8269;DHT22;4174;48.304;16.364;2023-03-07T04:07:03;4.30;99.90
8269;DHT22;4174;48.304;16.364;2023-03-07T04:13:07;4.40;99.90
8269;DHT22;4174;48.304;16.364;2023-03-07T04:19:11;4.40;99.90
8269;DHT22;4174;48.304;16.364;2023-03-07T04:25:14;4.30;99.90
8269;DHT22;4174;48.304;16.364;2023-03-07T04:31:21;4.30;99.90
8269;DHT22;4174;48.304;16.364;2023-03-07T04:37:23;4.30;99.90
8269;DHT22;4174;48.304;16.364;2023-03-07T04:43:27;4.30;99.90
8269;DHT22;4174;48.304;16.364;2023-03-07T04:49:31;4.40;99.90
8269;DHT22;4174;48.304;16.364;2023-03-07T04:55:35;4.40;99.90
8269;DHT22;4174;48.304;16.364;2023-03-07T05:01:40;4.30;99.90
8269;DHT22;4174;48.304;16.364;2023-03-07T05:07:43;4.40;99.90
8269;DHT22;4174;48.304;16.364;2023-03-07T05:13:47;4.50;99.90
8269;DHT22;4174;48.304;16.364;2023-03-07T05:19:51;4.60;99.90
8269;DHT22;4174;48.304;16.364;2023-03-07T05:25:56;4.70;99.90
8269;DHT22;4174;48.304;16.364;2023-03-07T05:32:00;4.80;99.90
8269;DHT22;4174;48.304;16.364;2023-03-07T05:38:03;4.80;99.90
8269;DHT22;4174;48.304;16.364;2023-03-07T05:44:07;4.90;99.90
8269;DHT22;4174;48.304;16.364;2023-03-07T05:50:11;4.90;99.90
8269;DHT22;4174;48.304;16.364;2023-03-07T05:56:14;5.00;99.90
8269;DHT22;4174;48.304;16.364;2023-03-07T06:02:18;5.00;99.90
8269;DHT22;4174;48.304;16.364;2023-03-07T06:08:22;5.10;99.90
8269;DHT22;4174;48.304;16.364;2023-03-07T06:14:25;5.30;99.90
8269;DHT22;4174;48.304;16.364;2023-03-07T06:20:29;5.40;99.90
8269;DHT22;4174;48.304;16.364;2023-03-07T06:26:33;5.70;99.90
8269;DHT22;4174;48.304;16.364;2023-03-07T06:32:38;5.60;99.90
8269;DHT22;4174;48.304;16.364;2023-03-07T06:38:41;5.70;99.90
8269;DHT22;4174;48.304;16.364;2023-03-07T06:44:44;5.70;99.90
8269;DHT22;4174;48.304;16.364;2023-03-07T06:50:48;5.90;99.90
8269;DHT22;4174;48.304;16.364;2023-03-07T06:56:52;6.10;99.90
8269;DHT22;4174;48.304;16.364;2023-03-07T07:02:56;6.30;99.90
8269;DHT22;4174;48.304;16.364;2023-03-07T07:09:00;6.30;99.90
8269;DHT22;4174;48.304;16.364;2023-03-07T07:15:05;6.50;99.90
8269;DHT22;4174;48.304;16.364;2023-03-07T07:21:09;6.70;99.90
8269;DHT22;4174;48.304;16.364;2023-03-07T07:27:11;6.90;99.90
8269;DHT22;4174;48.304;16.364;2023-03-07T07:33:14;7.00;99.90
8269;DHT22;4174;48.304;16.364;2023-03-07T07:39:18;7.30;99.90
8269;DHT22;4174;48.304;16.364;2023-03-07T07:45:20;7.30;99.90
8269;DHT22;4174;48.304;16.364;2023-03-07T07:51:23;7.30;99.90
8269;DHT22;4174;48.304;16.364;2023-03-07T07:57:26;7.30;98.90
8269;DHT22;4174;48.304;16.364;2023-03-07T08:03:30;7.50;99.00
8269;DHT22;4174;48.304;16.364;2023-03-07T08:09:35;7.60;98.10
8269;DHT22;4174;48.304;16.364;2023-03-07T08:15:39;8.10;97.00
8269;DHT22;4174;48.304;16.364;2023-03-07T08:21:42;8.10;97.00
8269;DHT22;4174;48.304;16.364;2023-03-07T08:27:46;8.20;95.50
8269;DHT22;4174;48.304;16.364;2023-03-07T08:33:49;8.40;95.10
8269;DHT22;4174;48.304;16.364;2023-03-07T08:39:53;9.10;94.30
8269;DHT22;4174;48.304;16.364;2023-03-07T08:45:57;9.30;93.30
8269;DHT22;4174;48.304;16.364;2023-03-07T08:52:00;9.90;93.10
8269;DHT22;4174;48.304;16.364;2023-03-07T08:58:06;11.00;87.10
8269;DHT22;4174;48.304;16.364;2023-03-07T09:04:09;10.90;87.00
8269;DHT22;4174;48.304;16.364;2023-03-07T09:10:13;11.40;78.40
8269;DHT22;4174;48.304;16.364;2023-03-07T09:16:17;11.90;75.60
8269;DHT22;4174;48.304;16.364;2023-03-07T09:22:20;12.50;68.00
8269;DHT22;4174;48.304;16.364;2023-03-07T09:28:24;13.10;67.40
8269;DHT22;4174;48.304;16.364;2023-03-07T09:34:28;13.20;62.00
8269;DHT22;4174;48.304;16.364;2023-03-07T09:40:32;13.20;61.10
8269;DHT22;4174;48.304;16.364;2023-03-07T09:46:45;12.80;61.90
8269;DHT22;4174;48.304;16.364;2023-03-07T09:52:50;12.90;62.40
8269;DHT22;4174;48.304;16.364;2023-03-07T09:59:01;12.70;62.00
8269;DHT22;4174;48.304;16.364;2023-03-07T10:05:38;12.50;62.00
8269;DHT22;4174;48.304;16.364;2023-03-07T10:12:18;13.90;59.20
8269;DHT22;4174;48.304;16.364;2023-03-07T10:18:39;13.90;59.10
8269;DHT22;4174;48.304;16.364;2023-03-07T10:24:48;13.70;56.80
8269;DHT22;4174;48.304;16.364;2023-03-07T10:30:49;13.30;57.40
8269;DHT22;4174;48.304;16.364;2023-03-07T10:36:51;13.80;58.10
8269;DHT22;4174;48.304;16.364;2023-03-07T10:42:54;14.30;57.00
8269;DHT22;4174;48.304;16.364;2023-03-07T10:49:15;14.70;56.00
8269;DHT22;4174;48.304;16.364;2023-03-07T10:55:38;15.30;54.70
8269;DHT22;4174;48.304;16.364;2023-03-07T11:01:50;16.30;54.90
8269;DHT22;4174;48.304;16.364;2023-03-07T11:07:46;16.90;53.10
8269;DHT22;4174;48.304;16.364;2023-03-07T11:20:17;17.50;49.90
8269;DHT22;4174;48.304;16.364;2023-03-07T11:26:22;17.60;48.60
8269;DHT22;4174;48.304;16.364;2023-03-07T11:32:26;17.90;48.20
8269;DHT22;4174;48.304;16.364;2023-03-07T11:38:39;18.10;48.30
8269;DHT22;4174;48.304;16.364;2023-03-07T11:44:57;18.20;45.50
8269;DHT22;4174;48.304;16.364;2023-03-07T11:51:29;17.50;47.30
8269;DHT22;4174;48.304;16.364;2023-03-07T11:58:01;15.30;52.50
8269;DHT22;4174;48.304;16.364;2023-03-07T12:04:23;14.10;53.60
8269;DHT22;4174;48.304;16.364;2023-03-07T12:10:44;13.60;56.40
8269;DHT22;4174;48.304;16.364;2023-03-07T12:16:58;13.20;57.70
8269;DHT22;4174;48.304;16.364;2023-03-07T12:23:26;13.30;57.10
8269;DHT22;4174;48.304;16.364;2023-03-07T12:29:36;12.20;61.70
8269;DHT22;4174;48.304;16.364;2023-03-07T12:35:41;12.90;65.90
8269;DHT22;4174;48.304;16.364;2023-03-07T12:41:49;13.50;64.80
8269;DHT22;4174;48.304;16.364;2023-03-07T12:47:59;13.50;63.00
8269;DHT22;4174;48.304;16.364;2023-03-07T12:54:12;12.80;63.20
8269;DHT22;4174;48.304;16.364;2023-03-07T13:00:22;12.60;66.20
8269;DHT22;4174;48.304;16.364;2023-03-07T13:06:25;12.40;66.40
8269;DHT22;4174;48.304;16.364;2023-03-07T13:12:30;11.80;66.60
8269;DHT22;4174;48.304;16.364;2023-03-07T13:18:34;12.10;71.20
8269;DHT22;4174;48.304;16.364;2023-03-07T13:24:38;12.30;70.70
8269;DHT22;4174;48.304;16.364;2023-03-07T13:30:40;11.80;75.00
8269;DHT22;4174;48.304;16.364;2023-03-07T13:36:43;11.90;73.70
8269;DHT22;4174;48.304;16.364;2023-03-07T13:42:47;11.70;75.40
8269;DHT22;4174;48.304;16.364;2023-03-07T13:49:00;12.00;76.40
8269;DHT22;4174;48.304;16.364;2023-03-07T13:55:12;11.90;76.40
8269;DHT22;4174;48.304;16.364;2023-03-07T14:01:19;11.30;81.40
8269;DHT22;4174;48.304;16.364;2023-03-07T14:07:33;11.10;87.60
8269;DHT22;4174;48.304;16.364;2023-03-07T14:14:01;10.50;90.80
8269;DHT22;4174;48.304;16.364;2023-03-07T14:20:13;10.20;94.40
8269;DHT22;4174;48.304;16.364;2023-03-07T14:26:18;10.20;95.50
8269;DHT22;4174;48.304;16.364;2023-03-07T14:32:27;9.70;99.90
8269;DHT22;4174;48.304;16.364;2023-03-07T14:38:28;9.70;99.90
8269;DHT22;4174;48.304;16.364;2023-03-07T14:44:42;9.40;99.90
8269;DHT22;4174;48.304;16.364;2023-03-07T14:50:46;8.80;99.90
8269;DHT22;4174;48.304;16.364;2023-03-07T14:56:49;8.50;99.90
8269;DHT22;4174;48.304;16.364;2023-03-07T15:02:55;8.30;99.90
8269;DHT22;4174;48.304;16.364;2023-03-07T15:08:57;8.30;99.90
8269;DHT22;4174;48.304;16.364;2023-03-07T15:15:00;8.00;99.90
8269;DHT22;4174;48.304;16.364;2023-03-07T15:21:04;7.90;99.90
8269;DHT22;4174;48.304;16.364;2023-03-07T15:27:08;7.80;99.90
8269;DHT22;4174;48.304;16.364;2023-03-07T15:33:10;7.50;99.90
8269;DHT22;4174;48.304;16.364;2023-03-07T15:39:23;7.50;99.90
8269;DHT22;4174;48.304;16.364;2023-03-07T15:45:27;7.30;99.90
8269;DHT22;4174;48.304;16.364;2023-03-07T15:51:33;7.30;99.90
8269;DHT22;4174;48.304;16.364;2023-03-07T15:57:36;7.00;99.90
8269;DHT22;4174;48.304;16.364;2023-03-07T16:03:46;6.90;99.90
8269;DHT22;4174;48.304;16.364;2023-03-07T16:09:41;6.70;99.90
8269;DHT22;4174;48.304;16.364;2023-03-07T16:15:56;6.50;99.90
8269;DHT22;4174;48.304;16.364;2023-03-07T16:21:48;6.50;99.90
8269;DHT22;4174;48.304;16.364;2023-03-07T16:27:52;6.80;99.90
8269;DHT22;4174;48.304;16.364;2023-03-07T16:33:54;6.50;99.90
8269;DHT22;4174;48.304;16.364;2023-03-07T16:39:57;6.40;99.90
8269;DHT22;4174;48.304;16.364;2023-03-07T16:46:02;6.20;99.90
8269;DHT22;4174;48.304;16.364;2023-03-07T16:52:05;6.10;99.90
8269;DHT22;4174;48.304;16.364;2023-03-07T16:58:15;6.00;99.90
8269;DHT22;4174;48.304;16.364;2023-03-07T17:04:12;6.30;99.90
8269;DHT22;4174;48.304;16.364;2023-03-07T17:10:15;6.50;99.90
8269;DHT22;4174;48.304;16.364;2023-03-07T17:16:19;6.60;99.90
8269;DHT22;4174;48.304;16.364;2023-03-07T17:22:23;6.50;99.90
8269;DHT22;4174;48.304;16.364;2023-03-07T17:28:27;6.50;99.90
8269;DHT22;4174;48.304;16.364;2023-03-07T17:34:31;6.60;99.90
8269;DHT22;4174;48.304;16.364;2023-03-07T17:40:33;6.20;99.90
8269;DHT22;4174;48.304;16.364;2023-03-07T17:46:36;5.80;99.90
8269;DHT22;4174;48.304;16.364;2023-03-07T17:52:39;5.90;99.90
8269;DHT22;4174;48.304;16.364;2023-03-07T17:58:42;6.10;99.90
8269;DHT22;4174;48.304;16.364;2023-03-07T18:04:46;6.40;99.90
8269;DHT22;4174;48.304;16.364;2023-03-07T18:10:50;6.10;99.90
8269;DHT22;4174;48.304;16.364;2023-03-07T18:16:52;6.10;99.90
8269;DHT22;4174;48.304;16.364;2023-03-07T18:22:55;6.00;99.90
8269;DHT22;4174;48.304;16.364;2023-03-07T18:28:58;5.90;99.90
8269;DHT22;4174;48.304;16.364;2023-03-07T18:35:02;6.00;99.90
8269;DHT22;4174;48.304;16.364;2023-03-07T18:41:05;6.10;99.90
8269;DHT22;4174;48.304;16.364;2023-03-07T18:47:09;6.20;99.90
8269;DHT22;4174;48.304;16.364;2023-03-07T18:53:12;6.20;99.90
8269;DHT22;4174;48.304;16.364;2023-03-07T18:59:18;6.50;99.90
8269;DHT22;4174;48.304;16.364;2023-03-07T19:05:21;6.50;99.90
8269;DHT22;4174;48.304;16.364;2023-03-07T19:11:25;6.50;99.90
8269;DHT22;4174;48.304;16.364;2023-03-07T19:17:28;6.50;99.90
8269;DHT22;4174;48.304;16.364;2023-03-07T19:23:31;6.30;99.90
8269;DHT22;4174;48.304;16.364;2023-03-07T19:29:34;6.30;99.90
8269;DHT22;4174;48.304;16.364;2023-03-07T19:35:38;6.20;99.90
8269;DHT22;4174;48.304;16.364;2023-03-07T19:41:42;6.10;99.90
8269;DHT22;4174;48.304;16.364;2023-03-07T19:47:45;6.20;99.90
8269;DHT22;4174;48.304;16.364;2023-03-07T19:53:47;6.40;99.90
8269;DHT22;4174;48.304;16.364;2023-03-07T19:59:50;6.50;99.90
8269;DHT22;4174;48.304;16.364;2023-03-07T20:05:53;6.60;99.90
8269;DHT22;4174;48.304;16.364;2023-03-07T20:11:57;6.60;99.90
8269;DHT22;4174;48.304;16.364;2023-03-07T20:18:00;6.80;99.90
8269;DHT22;4174;48.304;16.364;2023-03-07T20:24:03;6.90;99.90
8269;DHT22;4174;48.304;16.364;2023-03-07T20:30:08;6.90;99.90
8269;DHT22;4174;48.304;16.364;2023-03-07T20:36:17;6.80;99.90
8269;DHT22;4174;48.304;16.364;2023-03-07T20:42:22;6.60;99.90
8269;DHT22;4174;48.304;16.364;2023-03-07T20:48:25;6.50;99.90
8269;DHT22;4174;48.304;16.364;2023-03-07T20:54:29;6.40;99.90
8269;DHT22;4174;48.304;16.364;2023-03-07T21:00:32;6.50;99.90
8269;DHT22;4174;48.304;16.364;2023-03-07T21:06:38;6.40;99.90
8269;DHT22;4174;48.304;16.364;2023-03-07T21:12:40;6.30;99.90
8269;DHT22;4174;48.304;16.364;2023-03-07T21:18:44;6.20;99.90
8269;DHT22;4174;48.304;16.364;2023-03-07T21:24:47;6.10;99.90
8269;DHT22;4174;48.304;16.364;2023-03-07T21:30:52;6.00;99.90
8269;DHT22;4174;48.304;16.364;2023-03-07T21:36:53;5.90;99.90
8269;DHT22;4174;48.304;16.364;2023-03-07T21:42:57;5.80;99.90
8269;DHT22;4174;48.304;16.364;2023-03-07T21:49:00;5.70;99.90
8269;DHT22;4174;48.304;16.364;2023-03-07T21:55:06;5.60;99.90
8269;DHT22;4174;48.304;16.364;2023-03-07T22:01:11;5.50;99.90
8269;DHT22;4174;48.304;16.364;2023-03-07T22:07:13;5.40;99.90
8269;DHT22;4174;48.304;16.364;2023-03-07T22:13:16;5.30;99.90
8269;DHT22;4174;48.304;16.364;2023-03-07T22:19:20;5.10;99.90
8269;DHT22;4174;48.304;16.364;2023-03-07T22:25:24;5.00;99.90
8269;DHT22;4174;48.304;16.364;2023-03-07T22:31:28;4.90;99.90
8269;DHT22;4174;48.304;16.364;2023-03-07T22:37:31;4.70;99.90
8269;DHT22;4174;48.304;16.364;2023-03-07T22:43:36;4.70;99.90
8269;DHT22;4174;48.304;16.364;2023-03-07T22:49:38;4.50;99.90
8269;DHT22;4174;48.304;16.364;2023-03-07T22:55:42;4.50;99.90
8269;DHT22;4174;48.304;16.364;2023-03-07T23:01:45;4.40;99.90
8269;DHT22;4174;48.304;16.364;2023-03-07T23:07:48;4.50;99.90
8269;DHT22;4174;48.304;16.364;2023-03-07T23:13:51;4.40;99.90
8269;DHT22;4174;48.304;16.364;2023-03-07T23:19:54;4.30;99.90
8269;DHT22;4174;48.304;16.364;2023-03-07T23:25:58;4.40;99.90
8269;DHT22;4174;48.304;16.364;2023-03-07T23:32:01;4.40;99.90
8269;DHT22;4174;48.304;16.364;2023-03-07T23:38:05;4.50;99.90
8269;DHT22;4174;48.304;16.364;2023-03-07T23:44:08;4.50;99.90
8269;DHT22;4174;48.304;16.364;2023-03-07T23:50:11;4.60;99.90
8269;DHT22;4174;48.304;16.364;2023-03-07T23:56:14;4.60;99.90
